Time;durP1;ratioP1;P1;durP2;ratioP2;P2;SDS_P1;SDS_P2;PMS_P1;PMS_P2;Temp;Humidity;BMP_temperature;BMP_pressure;BME280_temperature;BME280_humidity;BME280_pressure;Samples;Min_cycle;Max_cycle;Signal;HPM_P1;HPM_P2
2021/12/28 00:00:07;;;;;;;;;;;;;;;;;;5325237;28;19935;-68
2021/12/28 00:02:38;;;;;;;;;;;;;;;;;;5324790;28;19953;-68
2021/12/28 00:05:09;;;;;;;;;;;;;;;;;;5324920;28;19949;-68
2021/12/28 00:07:41;;;;;;;;;;;;;;;;;;5325106;28;19908;-68
2021/12/28 00:10:12;;;;;;;;;;;;;;;;;;5323009;28;19950;-68
2021/12/28 00:12:43;;;;;;;;;;;;;;;;;;5324486;28;20251;-68
2021/12/28 00:18:02;;;;;;;;;;;;;;;;;;5324066;28;19907;-67
2021/12/28 00:20:33;;;;;;;;;;;;;;;;;;5325227;28;19899;-67
2021/12/28 00:23:04;;;;;;;;;;;;;;;;;;5324539;28;19931;-68
2021/12/28 00:25:35;;;;;;;;;;;;;;;;;;5324251;28;19949;-67
2021/12/28 00:28:06;;;;;;;;;;;;;;;;;;5324465;28;19911;-67
2021/12/28 00:30:37;;;;;;;;;;;;;;;;;;5324038;28;19900;-68
2021/12/28 00:33:08;;;;;;;;;;;;;;;;;;5324218;28;20351;-69
2021/12/28 00:35:39;;;;;;;;;;;;;;;;;;5324300;28;19912;-68
2021/12/28 00:38:11;;;;;;;;;;;;;;;;;;5324168;28;19929;-68
2021/12/28 00:40:42;;;;;;;;;;;;;;;;;;5324429;28;19956;-68
2021/12/28 00:43:13;;;;;;;;;;;;;;;;;;5324886;28;19904;-68
2021/12/28 00:45:44;;;;;;;;;;;;;;;;;;5323393;28;19907;-68
2021/12/28 00:48:15;;;;;;;;;;;;;;;;;;5324425;28;19915;-68
2021/12/28 00:50:46;;;;;;;;;;;;;;;;;;5323559;28;20320;-68
2021/12/28 00:53:17;;;;;;;;;;;;;;;;;;5323793;28;19962;-68
2021/12/28 00:55:48;;;;;;;;;;;;;;;;;;5324119;28;19912;-68
2021/12/28 00:58:19;;;;;;;;;;;;;;;;;;5324659;28;19904;-68
2021/12/28 01:00:50;;;;;;;;;;;;;;;;;;5323215;28;19904;-68
2021/12/28 01:03:22;;;;;;;;;;;;;;;;;;5324474;28;20022;-68
2021/12/28 01:05:53;;;;;;;;;;;;;;;;;;5324121;28;19911;-68
2021/12/28 01:08:26;;;;;;;;;;;;;;;;;;5323603;28;20381;-68
2021/12/28 01:10:57;;;;;;;;;;;;;;;;;;5324044;28;20638;-68
2021/12/28 01:13:29;;;;;;;;;;;;;;;;;;5323748;28;19983;-68
2021/12/28 01:16:00;;;;;;;;;;;;;;;;;;5323930;28;19912;-68
2021/12/28 01:18:31;;;;;;;;;;;;;;;;;;5324363;28;19904;-68
2021/12/28 01:21:02;;;;;;;;;;;;;;;;;;5322985;28;20339;-68
2021/12/28 01:23:33;;;;;;;;;;;;;;;;;;5324194;28;19903;-68
2021/12/28 01:26:04;;;;;;;;;;;;;;;;;;5323833;28;19960;-68
2021/12/28 01:28:35;;;;;;;;;;;;;;;;;;5323715;28;19903;-68
2021/12/28 01:31:06;;;;;;;;;;;;;;;;;;5323949;28;20274;-68
2021/12/28 01:33:37;;;;;;;;;;;;;;;;;;5323726;28;19904;-68
2021/12/28 01:36:08;;;;;;;;;;;;;;;;;;5323308;28;20338;-67
2021/12/28 01:38:39;;;;;;;;;;;;;;;;;;5323595;28;19939;-68
2021/12/28 01:41:10;;;;;;;;;;;;;;;;;;5326943;28;19903;-68
2021/12/28 01:43:43;;;;;;;;;;;;;;;;;;5327042;28;19904;-68
2021/12/28 01:46:14;;;;;;;;;;;;;;;;;;5328498;28;19907;-67
2021/12/28 01:48:45;;;;;;;;;;;;;;;;;;5326655;28;20384;-67
2021/12/28 01:51:17;;;;;;;;;;;;;;;;;;5328120;28;19907;-68
2021/12/28 01:53:48;;;;;;;;;;;;;;;;;;5327782;28;19911;-67
2021/12/28 01:56:19;;;;;;;;;;;;;;;;;;5327122;28;20358;-68
2021/12/28 01:58:51;;;;;;;;;;;;;;;;;;5327533;28;19903;-68
2021/12/28 02:01:22;;;;;;;;;;;;;;;;;;5328062;28;19957;-68
2021/12/28 02:03:53;;;;;;;;;;;;;;;;;;5326769;28;19904;-68
2021/12/28 02:06:25;;;;;;;;;;;;;;;;;;5327735;28;19969;-68
2021/12/28 02:08:56;;;;;;;;;;;;;;;;;;5327417;28;19952;-68
2021/12/28 02:11:27;;;;;;;;;;;;;;;;;;5327184;28;19908;-68
2021/12/28 02:13:59;;;;;;;;;;;;;;;;;;5327262;28;19903;-68
2021/12/28 02:16:30;;;;;;;;;;;;;;;;;;5327927;28;19912;-68
2021/12/28 02:19:02;;;;;;;;;;;;;;;;;;5326509;28;19903;-68
2021/12/28 02:21:34;;;;;;;;;;;;;;;;;;5327765;28;19975;-68
2021/12/28 02:24:05;;;;;;;;;;;;;;;;;;5326166;28;20383;-68
2021/12/28 02:26:36;;;;;;;;;;;;;;;;;;5327294;28;19904;-68
2021/12/28 02:29:07;;;;;;;;;;;;;;;;;;5327193;28;19998;-68
2021/12/28 02:31:38;;;;;;;;;;;;;;;;;;5326137;28;19904;-68
2021/12/28 02:34:09;;;;;;;;;;;;;;;;;;5327251;28;19903;-67
2021/12/28 02:36:41;;;;;;;;;;;;;;;;;;5326573;28;19931;-68
2021/12/28 02:39:12;;;;;;;;;;;;;;;;;;5326428;28;19930;-68
2021/12/28 02:41:43;;;;;;;;;;;;;;;;;;5326473;28;20350;-67
2021/12/28 02:44:14;;;;;;;;;;;;;;;;;;5327360;28;19907;-68
2021/12/28 02:46:45;;;;;;;;;;;;;;;;;;5325738;28;19911;-67
2021/12/28 02:49:16;;;;;;;;;;;;;;;;;;5327042;28;19911;-68
2021/12/28 02:51:47;;;;;;;;;;;;;;;;;;5325046;28;20282;-67
2021/12/28 02:54:20;;;;;;;;;;;;;;;;;;5326986;28;19904;-67
2021/12/28 02:56:51;;;;;;;;;;;;;;;;;;5326509;27;20362;-67
2021/12/28 02:59:22;;;;;;;;;;;;;;;;;;5326175;28;19946;-67
2021/12/28 03:01:53;;;;;;;;;;;;;;;;;;5326366;28;19904;-68
2021/12/28 03:04:27;;;;;;;;;;;;;;;;;;5327017;28;20286;-67
2021/12/28 03:06:59;;;;;;;;;;;;;;;;;;5325210;28;19951;-67
2021/12/28 03:09:30;;;;;;;;;;;;;;;;;;5326759;28;19911;-68
2021/12/28 03:12:01;;;;;;;;;;;;;;;;;;5325926;28;20354;-69
2021/12/28 03:14:32;;;;;;;;;;;;;;;;;;5325607;28;19950;-68
2021/12/28 03:17:03;;;;;;;;;;;;;;;;;;5326235;28;19904;-68
2021/12/28 03:19:34;;;;;;;;;;;;;;;;;;5326457;28;19908;-68
2021/12/28 03:22:06;;;;;;;;;;;;;;;;;;5324712;28;20374;-68
2021/12/28 03:24:37;;;;;;;;;;;;;;;;;;5325644;28;20347;-68
2021/12/28 03:27:08;;;;;;;;;;;;;;;;;;5325285;28;19949;-67
2021/12/28 03:29:39;;;;;;;;;;;;;;;;;;5325831;28;19946;-67
2021/12/28 03:32:10;;;;;;;;;;;;;;;;;;5326407;28;19904;-68
2021/12/28 03:34:41;;;;;;;;;;;;;;;;;;5324805;28;20312;-68
2021/12/28 03:37:12;;;;;;;;;;;;;;;;;;5326004;28;20335;-68
2021/12/28 03:39:43;;;;;;;;;;;;;;;;;;5325634;28;19904;-68
2021/12/28 03:42:14;;;;;;;;;;;;;;;;;;5325407;28;19946;-68
2021/12/28 03:44:45;;;;;;;;;;;;;;;;;;5325356;28;19903;-68
2021/12/28 03:47:16;;;;;;;;;;;;;;;;;;5325693;28;19907;-68
2021/12/28 03:49:47;;;;;;;;;;;;;;;;;;5324428;28;20335;-68
2021/12/28 03:52:19;;;;;;;;;;;;;;;;;;5325921;28;19903;-68
2021/12/28 03:54:50;;;;;;;;;;;;;;;;;;5325187;28;20392;-68
2021/12/28 03:57:21;;;;;;;;;;;;;;;;;;5324961;28;19929;-68
2021/12/28 03:59:52;;;;;;;;;;;;;;;;;;5324977;28;19907;-68
2021/12/28 04:02:23;;;;;;;;;;;;;;;;;;5324934;28;19907;-68
2021/12/28 04:04:54;;;;;;;;;;;;;;;;;;5323845;28;19908;-68
2021/12/28 04:07:25;;;;;;;;;;;;;;;;;;5325627;28;19910;-68
2021/12/28 04:10:00;;;;;;;;;;;;;;;;;;5323991;28;20002;-68
2021/12/28 04:12:31;;;;;;;;;;;;;;;;;;5325272;28;19904;-67
2021/12/28 04:15:02;;;;;;;;;;;;;;;;;;5324911;28;19911;-67
2021/12/28 04:17:37;;;;;;;;;;;;;;;;;;5324740;28;19910;-67
2021/12/28 04:20:09;;;;;;;;;;;;;;;;;;5325323;28;20374;-67
2021/12/28 04:22:40;;;;;;;;;;;;;;;;;;5324774;28;19903;-67
2021/12/28 04:25:11;;;;;;;;;;;;;;;;;;5324272;28;20267;-67
2021/12/28 04:27:42;;;;;;;;;;;;;;;;;;5324690;28;19903;-67
2021/12/28 04:30:13;;;;;;;;;;;;;;;;;;5324933;28;20366;-67
2021/12/28 04:32:45;;;;;;;;;;;;;;;;;;5324047;28;19915;-67
2021/12/28 04:35:16;;;;;;;;;;;;;;;;;;5324944;28;19911;-67
2021/12/28 04:37:47;;;;;;;;;;;;;;;;;;5323527;28;19904;-67
2021/12/28 04:40:19;;;;;;;;;;;;;;;;;;5324762;28;20423;-68
2021/12/28 04:42:50;;;;;;;;;;;;;;;;;;5324443;28;20476;-68
2021/12/28 04:45:21;;;;;;;;;;;;;;;;;;5324037;28;19915;-68
2021/12/28 04:47:52;;;;;;;;;;;;;;;;;;5324012;28;20436;-68
2021/12/28 04:50:23;;;;;;;;;;;;;;;;;;5324687;28;19903;-68
2021/12/28 04:52:57;;;;;;;;;;;;;;;;;;5323449;28;19915;-67
2021/12/28 04:55:28;;;;;;;;;;;;;;;;;;5324753;28;20381;-68
2021/12/28 04:57:59;;;;;;;;;;;;;;;;;;5324054;28;19943;-67
2021/12/28 05:00:30;;;;;;;;;;;;;;;;;;5324280;28;19903;-67
2021/12/28 05:03:01;;;;;;;;;;;;;;;;;;5324222;28;19903;-67
2021/12/28 05:05:32;;;;;;;;;;;;;;;;;;5323935;28;19904;-67
2021/12/28 05:08:03;;;;;;;;;;;;;;;;;;5324140;28;20350;-67
2021/12/28 05:10:34;;;;;;;;;;;;;;;;;;5324538;28;19907;-67
2021/12/28 05:13:05;;;;;;;;;;;;;;;;;;5323025;28;19904;-67
2021/12/28 05:15:37;;;;;;;;;;;;;;;;;;5325921;28;20317;-67
2021/12/28 05:18:08;;;;;;;;;;;;;;;;;;5328584;28;19904;-67
2021/12/28 05:20:39;;;;;;;;;;;;;;;;;;5327708;28;19911;-67
2021/12/28 05:23:10;;;;;;;;;;;;;;;;;;5328802;28;19904;-67
2021/12/28 05:25:41;;;;;;;;;;;;;;;;;;5327966;28;20491;-67
2021/12/28 05:28:12;;;;;;;;;;;;;;;;;;5328053;28;19910;-67
2021/12/28 05:30:43;;;;;;;;;;;;;;;;;;5328282;28;19904;-68
2021/12/28 05:33:14;;;;;;;;;;;;;;;;;;5328899;28;19907;-68
2021/12/28 05:35:45;;;;;;;;;;;;;;;;;;5327123;28;20236;-67
2021/12/28 05:38:16;;;;;;;;;;;;;;;;;;5328468;28;19903;-67
2021/12/28 05:40:48;;;;;;;;;;;;;;;;;;5327324;28;20247;-68
2021/12/28 05:43:19;;;;;;;;;;;;;;;;;;5328598;28;19973;-67
2021/12/28 05:45:50;;;;;;;;;;;;;;;;;;5327909;28;20026;-68
2021/12/28 05:48:21;;;;;;;;;;;;;;;;;;5327492;28;19922;-67
2021/12/28 05:50:52;;;;;;;;;;;;;;;;;;5327516;28;19903;-68
2021/12/28 05:53:23;;;;;;;;;;;;;;;;;;5328398;28;19903;-68
2021/12/28 05:55:54;;;;;;;;;;;;;;;;;;5327070;28;20247;-68
2021/12/28 05:58:25;;;;;;;;;;;;;;;;;;5328186;28;19911;-68
2021/12/28 06:00:56;;;;;;;;;;;;;;;;;;5327392;28;19966;-68
2021/12/28 06:03:27;;;;;;;;;;;;;;;;;;5327429;28;19904;-68
2021/12/28 06:05:59;;;;;;;;;;;;;;;;;;5327511;28;19942;-68
2021/12/28 06:08:30;;;;;;;;;;;;;;;;;;5327900;28;19947;-68
2021/12/28 06:11:03;;;;;;;;;;;;;;;;;;5326467;28;19904;-68
2021/12/28 06:13:34;;;;;;;;;;;;;;;;;;5327362;28;19968;-68
2021/12/28 06:16:05;;;;;;;;;;;;;;;;;;5326437;28;19978;-68
2021/12/28 06:18:36;;;;;;;;;;;;;;;;;;5327207;28;19903;-68
2021/12/28 06:21:07;;;;;;;;;;;;;;;;;;5327526;28;19903;-68
2021/12/28 06:23:38;;;;;;;;;;;;;;;;;;5326053;28;19944;-68
2021/12/28 06:26:09;;;;;;;;;;;;;;;;;;5326916;28;19904;-68
2021/12/28 06:28:40;;;;;;;;;;;;;;;;;;5326233;28;19926;-68
2021/12/28 06:31:11;;;;;;;;;;;;;;;;;;5326800;28;19926;-68
2021/12/28 06:33:42;;;;;;;;;;;;;;;;;;5326779;28;19903;-66
2021/12/28 06:36:13;;;;;;;;;;;;;;;;;;5327181;28;19911;-66
2021/12/28 06:38:44;;;;;;;;;;;;;;;;;;5325716;28;20347;-66
2021/12/28 06:41:16;;;;;;;;;;;;;;;;;;5327238;28;19908;-68
2021/12/28 06:43:48;;;;;;;;;;;;;;;;;;5326626;28;20335;-67
2021/12/28 06:46:19;;;;;;;;;;;;;;;;;;5326382;28;19903;-67
2021/12/28 06:48:50;;;;;;;;;;;;;;;;;;5326244;28;20420;-67
2021/12/28 06:51:21;;;;;;;;;;;;;;;;;;5326207;28;19910;-67
2021/12/28 06:53:53;;;;;;;;;;;;;;;;;;5326458;28;19947;-67
2021/12/28 06:56:24;;;;;;;;;;;;;;;;;;5327104;28;19915;-67
2021/12/28 06:58:55;;;;;;;;;;;;;;;;;;5325349;28;19908;-67
2021/12/28 07:01:26;;;;;;;;;;;;;;;;;;5326605;28;19903;-67
2021/12/28 07:03:57;;;;;;;;;;;;;;;;;;5326361;28;19934;-67
2021/12/28 07:06:28;;;;;;;;;;;;;;;;;;5326116;28;19904;-67
2021/12/28 07:08:59;;;;;;;;;;;;;;;;;;5326034;28;19904;-67
2021/12/28 07:11:31;;;;;;;;;;;;;;;;;;5326962;28;20070;-66
2021/12/28 07:14:02;;;;;;;;;;;;;;;;;;5325067;28;19933;-67
2021/12/28 07:16:33;;;;;;;;;;;;;;;;;;5326379;28;20359;-67
2021/12/28 07:19:09;;;;;;;;;;;;;;;;;;5325441;28;19955;-67
2021/12/28 07:21:41;;;;;;;;;;;;;;;;;;5325918;28;20373;-67
2021/12/28 07:24:13;;;;;;;;;;;;;;;;;;5326366;28;19904;-67
2021/12/28 07:26:44;;;;;;;;;;;;;;;;;;5324827;28;20307;-67
2021/12/28 07:29:15;;;;;;;;;;;;;;;;;;5326248;28;19904;-67
2021/12/28 07:31:46;;;;;;;;;;;;;;;;;;5325412;28;20320;-67
2021/12/28 07:34:17;;;;;;;;;;;;;;;;;;5325174;28;19911;-67
2021/12/28 07:36:48;;;;;;;;;;;;;;;;;;5325422;28;19957;-67
2021/12/28 07:39:20;;;;;;;;;;;;;;;;;;5325955;28;19914;-67
2021/12/28 07:41:51;;;;;;;;;;;;;;;;;;5324641;28;19907;-67
2021/12/28 07:44:22;;;;;;;;;;;;;;;;;;5325973;28;19910;-67
2021/12/28 07:46:53;;;;;;;;;;;;;;;;;;5325148;28;20353;-68
2021/12/28 07:49:24;;;;;;;;;;;;;;;;;;5324704;28;20056;-67
2021/12/28 07:51:55;;;;;;;;;;;;;;;;;;5325374;28;19911;-67
2021/12/28 07:54:26;;;;;;;;;;;;;;;;;;5324806;28;19947;-67
2021/12/28 07:56:57;;;;;;;;;;;;;;;;;;5325003;28;19912;-67
2021/12/28 07:59:28;;;;;;;;;;;;;;;;;;5325372;28;20346;-67
2021/12/28 08:01:59;;;;;;;;;;;;;;;;;;5324044;28;19956;-67
2021/12/28 08:04:30;;;;;;;;;;;;;;;;;;5325478;28;19910;-67
2021/12/28 08:07:01;;;;;;;;;;;;;;;;;;5325030;28;19958;-67
2021/12/28 08:09:33;;;;;;;;;;;;;;;;;;5323268;28;20308;-67
2021/12/28 08:12:04;;;;;;;;;;;;;;;;;;5323854;28;20002;-67
2021/12/28 08:14:35;;;;;;;;;;;;;;;;;;5325131;28;19903;-66
2021/12/28 08:17:06;;;;;;;;;;;;;;;;;;5323848;28;19990;-67
2021/12/28 08:19:38;;;;;;;;;;;;;;;;;;5324676;28;19903;-67
2021/12/28 08:22:09;;;;;;;;;;;;;;;;;;5325210;28;19957;-67
2021/12/28 08:24:40;;;;;;;;;;;;;;;;;;5323230;28;19948;-66
2021/12/28 08:27:11;;;;;;;;;;;;;;;;;;5324885;28;20003;-67
2021/12/28 08:29:42;;;;;;;;;;;;;;;;;;5323844;28;19962;-67
2021/12/28 08:32:13;;;;;;;;;;;;;;;;;;5325033;28;20006;-67
2021/12/28 08:34:44;;;;;;;;;;;;;;;;;;5324128;28;20310;-67
2021/12/28 08:37:15;;;;;;;;;;;;;;;;;;5324049;28;19949;-67
2021/12/28 08:39:46;;;;;;;;;;;;;;;;;;5324492;28;19946;-66
2021/12/28 08:42:17;;;;;;;;;;;;;;;;;;5324587;28;20319;-66
2021/12/28 08:44:48;;;;;;;;;;;;;;;;;;5323437;28;20366;-67
2021/12/28 08:47:22;;;;;;;;;;;;;;;;;;5324435;28;19911;-66
2021/12/28 08:49:53;;;;;;;;;;;;;;;;;;5323446;28;19904;-67
2021/12/28 08:52:24;;;;;;;;;;;;;;;;;;5323930;28;20036;-66
2021/12/28 08:54:55;;;;;;;;;;;;;;;;;;5317824;28;20362;-67
2021/12/28 08:57:26;;;;;;;;;;;;;;;;;;5323210;28;19904;-66
2021/12/28 08:59:57;;;;;;;;;;;;;;;;;;5322817;28;19904;-66
2021/12/28 09:02:28;;;;;;;;;;;;;;;;;;5323897;28;20323;-66
2021/12/28 09:04:59;;;;;;;;;;;;;;;;;;5323145;28;19927;-67
2021/12/28 09:07:31;;;;;;;;;;;;;;;;;;5324661;28;20372;-67
2021/12/28 09:10:02;;;;;;;;;;;;;;;;;;5323902;28;20037;-67
2021/12/28 09:12:33;;;;;;;;;;;;;;;;;;5321659;28;19904;-67
2021/12/28 09:15:04;;;;;;;;;;;;;;;;;;5322449;28;20279;-66
2021/12/28 09:17:35;;;;;;;;;;;;;;;;;;5323497;28;20014;-67
2021/12/28 09:20:06;;;;;;;;;;;;;;;;;;5321639;28;19904;-67
2021/12/28 09:22:37;;;;;;;;;;;;;;;;;;5322552;28;20346;-67
2021/12/28 09:25:08;;;;;;;;;;;;;;;;;;5322576;28;19903;-67
2021/12/28 09:27:41;;;;;;;;;;;;;;;;;;5321928;28;19903;-67
2021/12/28 09:30:12;;;;;;;;;;;;;;;;;;5323228;28;19914;-67
2021/12/28 09:32:43;;;;;;;;;;;;;;;;;;5321849;28;19903;-67
2021/12/28 09:35:14;;;;;;;;;;;;;;;;;;5323106;28;20320;-67
2021/12/28 09:37:45;;;;;;;;;;;;;;;;;;5321811;28;19903;-67
2021/12/28 09:40:16;;;;;;;;;;;;;;;;;;5322463;28;19903;-67
2021/12/28 09:42:48;;;;;;;;;;;;;;;;;;5322403;28;19903;-67
2021/12/28 09:45:19;;;;;;;;;;;;;;;;;;5322795;28;19911;-66
2021/12/28 09:47:50;;;;;;;;;;;;;;;;;;5321423;28;20378;-67
2021/12/28 09:50:21;;;;;;;;;;;;;;;;;;5322461;28;20281;-67
2021/12/28 09:52:52;;;;;;;;;;;;;;;;;;5322497;28;20258;-67
2021/12/28 09:55:23;;;;;;;;;;;;;;;;;;5322140;28;19912;-67
2021/12/28 09:57:54;;;;;;;;;;;;;;;;;;5322239;28;19907;-67
2021/12/28 10:00:25;;;;;;;;;;;;;;;;;;5322718;28;19903;-67
2021/12/28 10:02:56;;;;;;;;;;;;;;;;;;5324625;28;19918;-67
2021/12/28 10:05:29;;;;;;;;;;;;;;;;;;5326531;28;19914;-68
2021/12/28 10:08:00;;;;;;;;;;;;;;;;;;5325366;28;19910;-67
2021/12/28 10:10:31;;;;;;;;;;;;;;;;;;5326789;28;19987;-68
2021/12/28 10:13:02;;;;;;;;;;;;;;;;;;5325957;28;19911;-67
2021/12/28 10:15:33;;;;;;;;;;;;;;;;;;5325803;28;19911;-66
2021/12/28 10:18:04;;;;;;;;;;;;;;;;;;5325499;28;20330;-67
2021/12/28 10:20:36;;;;;;;;;;;;;;;;;;5326735;28;20002;-68
2021/12/28 10:23:09;;;;;;;;;;;;;;;;;;5326059;28;19903;-66
2021/12/28 10:25:40;;;;;;;;;;;;;;;;;;5326569;28;19939;-67
2021/12/28 10:28:11;;;;;;;;;;;;;;;;;;5326253;28;19947;-66
2021/12/28 10:30:43;;;;;;;;;;;;;;;;;;5325859;28;19908;-67
2021/12/28 10:33:15;;;;;;;;;;;;;;;;;;5327555;28;19912;-67
2021/12/28 10:35:46;;;;;;;;;;;;;;;;;;5326443;28;19919;-67
2021/12/28 10:38:17;;;;;;;;;;;;;;;;;;5326426;28;19903;-67
2021/12/28 10:40:48;;;;;;;;;;;;;;;;;;5326729;28;20300;-67
2021/12/28 10:43:19;;;;;;;;;;;;;;;;;;5324774;28;20500;-67
2021/12/28 10:45:51;;;;;;;;;;;;;;;;;;5325699;28;19908;-67
2021/12/28 10:48:22;;;;;;;;;;;;;;;;;;5326148;28;19915;-67
2021/12/28 10:50:55;;;;;;;;;;;;;;;;;;5324846;28;20343;-67
2021/12/28 10:53:34;;;;;;;;;;;;;;;;;;5326607;28;20282;-66
2021/12/28 10:56:05;;;;;;;;;;;;;;;;;;5325893;28;19915;-67
2021/12/28 10:58:40;;;;;;;;;;;;;;;;;;5325787;28;19948;-69
2021/12/28 11:01:11;;;;;;;;;;;;;;;;;;5326903;28;19911;-68
2021/12/28 11:03:42;;;;;;;;;;;;;;;;;;5326155;28;19964;-68
2021/12/28 11:06:13;;;;;;;;;;;;;;;;;;5325666;28;19912;-67
2021/12/28 11:08:44;;;;;;;;;;;;;;;;;;5326272;28;20259;-69
2021/12/28 11:11:15;;;;;;;;;;;;;;;;;;5325913;28;19903;-69
2021/12/28 11:13:46;;;;;;;;;;;;;;;;;;5325689;28;19911;-69
2021/12/28 11:16:19;;;;;;;;;;;;;;;;;;5326205;28;19912;-69
2021/12/28 11:18:50;;;;;;;;;;;;;;;;;;5325288;28;19904;-68
2021/12/28 11:21:22;;;;;;;;;;;;;;;;;;5326522;28;20243;-69
2021/12/28 11:23:53;;;;;;;;;;;;;;;;;;5325878;28;20002;-69
2021/12/28 11:26:24;;;;;;;;;;;;;;;;;;5325857;28;19911;-70
2021/12/28 11:28:55;;;;;;;;;;;;;;;;;;5325796;28;19915;-68
2021/12/28 11:31:26;;;;;;;;;;;;;;;;;;5326286;28;19910;-68
2021/12/28 11:33:58;;;;;;;;;;;;;;;;;;5324869;28;20312;-68
2021/12/28 11:36:29;;;;;;;;;;;;;;;;;;5326232;28;19918;-68
2021/12/28 11:39:00;;;;;;;;;;;;;;;;;;5325579;28;19942;-68
2021/12/28 11:41:31;;;;;;;;;;;;;;;;;;5325528;28;20350;-68
2021/12/28 11:44:02;;;;;;;;;;;;;;;;;;5325514;28;19904;-69
2021/12/28 11:46:34;;;;;;;;;;;;;;;;;;5325289;28;19929;-68
2021/12/28 11:49:06;;;;;;;;;;;;;;;;;;5324517;28;19942;-68
2021/12/28 11:51:37;;;;;;;;;;;;;;;;;;5325073;27;20357;-69
2021/12/28 11:54:08;;;;;;;;;;;;;;;;;;5324155;28;19951;-68
2021/12/28 11:56:39;;;;;;;;;;;;;;;;;;5319709;28;20297;-69
2021/12/28 11:59:10;;;;;;;;;;;;;;;;;;5325652;28;19903;-69
2021/12/28 12:01:41;;;;;;;;;;;;;;;;;;5324354;28;19911;-70
2021/12/28 12:04:12;;;;;;;;;;;;;;;;;;5325481;28;20263;-69
2021/12/28 12:06:43;;;;;;;;;;;;;;;;;;5324649;28;19990;-69
2021/12/28 12:09:14;;;;;;;;;;;;;;;;;;5324441;28;19907;-69
2021/12/28 12:11:45;;;;;;;;;;;;;;;;;;5324501;28;19910;-70
2021/12/28 12:14:16;;;;;;;;;;;;;;;;;;5325318;28;20324;-69
2021/12/28 12:16:47;;;;;;;;;;;;;;;;;;5323727;28;19965;-69
2021/12/28 12:19:19;;;;;;;;;;;;;;;;;;5324071;28;19910;-69
2021/12/28 12:21:50;;;;;;;;;;;;;;;;;;5322941;28;20361;-70
2021/12/28 12:24:21;;;;;;;;;;;;;;;;;;5324329;28;19910;-68
2021/12/28 12:26:52;;;;;;;;;;;;;;;;;;5324219;28;19911;-69
2021/12/28 12:29:23;;;;;;;;;;;;;;;;;;5324391;28;19911;-69
2021/12/28 12:31:54;;;;;;;;;;;;;;;;;;5324314;28;19911;-69
2021/12/28 12:34:26;;;;;;;;;;;;;;;;;;5323954;28;19957;-66
2021/12/28 12:36:57;;;;;;;;;;;;;;;;;;5323558;28;19973;-67
2021/12/28 12:39:28;;;;;;;;;;;;;;;;;;5325038;28;19985;-67
2021/12/28 12:41:59;;;;;;;;;;;;;;;;;;5324463;28;19958;-67
2021/12/28 12:44:30;;;;;;;;;;;;;;;;;;5322472;28;19904;-67
2021/12/28 12:47:01;;;;;;;;;;;;;;;;;;5323197;28;20351;-68
2021/12/28 12:49:32;;;;;;;;;;;;;;;;;;5324748;28;19935;-68
2021/12/28 12:52:03;;;;;;;;;;;;;;;;;;5323317;28;19903;-68
2021/12/28 12:54:34;;;;;;;;;;;;;;;;;;5324737;28;19903;-68
2021/12/28 12:57:05;;;;;;;;;;;;;;;;;;5323264;28;20339;-68
2021/12/28 12:59:37;;;;;;;;;;;;;;;;;;5324168;28;20354;-68
2021/12/28 13:02:08;;;;;;;;;;;;;;;;;;5324218;28;20356;-68
2021/12/28 13:04:39;;;;;;;;;;;;;;;;;;5323289;28;19904;-67
2021/12/28 13:07:11;;;;;;;;;;;;;;;;;;5324363;28;20304;-67
2021/12/28 13:09:42;;;;;;;;;;;;;;;;;;5324008;28;20336;-67
2021/12/28 13:12:13;;;;;;;;;;;;;;;;;;5323759;28;20010;-67
2021/12/28 13:14:44;;;;;;;;;;;;;;;;;;5323936;28;20021;-68
2021/12/28 13:17:17;;;;;;;;;;;;;;;;;;5324344;28;19904;-68
2021/12/28 13:19:48;;;;;;;;;;;;;;;;;;5322980;28;19949;-68
2021/12/28 13:22:19;;;;;;;;;;;;;;;;;;5324386;28;20358;-68
2021/12/28 13:24:50;;;;;;;;;;;;;;;;;;5323003;28;20424;-67
2021/12/28 13:27:21;;;;;;;;;;;;;;;;;;5324789;28;19904;-68
2021/12/28 13:29:53;;;;;;;;;;;;;;;;;;5323886;28;19903;-67
2021/12/28 13:32:24;;;;;;;;;;;;;;;;;;5321805;28;19903;-68
2021/12/28 13:34:55;;;;;;;;;;;;;;;;;;5322456;28;19912;-68
2021/12/28 13:37:26;;;;;;;;;;;;;;;;;;5325901;28;19915;-68
2021/12/28 13:39:57;;;;;;;;;;;;;;;;;;5326136;28;19911;-68
2021/12/28 13:42:28;;;;;;;;;;;;;;;;;;5327430;28;19935;-68
2021/12/28 13:44:59;;;;;;;;;;;;;;;;;;5326115;28;19910;-68
2021/12/28 13:47:30;;;;;;;;;;;;;;;;;;5326023;28;20369;-67
2021/12/28 13:50:01;;;;;;;;;;;;;;;;;;5326749;28;19957;-68
2021/12/28 13:52:33;;;;;;;;;;;;;;;;;;5327205;28;19926;-67
2021/12/28 13:55:04;;;;;;;;;;;;;;;;;;5325722;28;19916;-67
2021/12/28 13:57:36;;;;;;;;;;;;;;;;;;5326555;28;19908;-67
2021/12/28 14:00:07;;;;;;;;;;;;;;;;;;5325638;28;19935;-68
2021/12/28 14:02:39;;;;;;;;;;;;;;;;;;5326402;28;20114;-67
2021/12/28 14:05:10;;;;;;;;;;;;;;;;;;5326887;28;19908;-66
2021/12/28 14:07:41;;;;;;;;;;;;;;;;;;5325503;28;19949;-67
2021/12/28 14:10:12;;;;;;;;;;;;;;;;;;5326459;28;19904;-66
2021/12/28 14:12:44;;;;;;;;;;;;;;;;;;5325689;28;19943;-66
2021/12/28 14:15:15;;;;;;;;;;;;;;;;;;5326046;28;19921;-67
2021/12/28 14:17:46;;;;;;;;;;;;;;;;;;5326077;28;19957;-66
2021/12/28 14:20:17;;;;;;;;;;;;;;;;;;5326302;28;19904;-66
2021/12/28 14:22:48;;;;;;;;;;;;;;;;;;5324935;28;20342;-66
2021/12/28 14:25:20;;;;;;;;;;;;;;;;;;5325719;28;19938;-67
2021/12/28 14:27:51;;;;;;;;;;;;;;;;;;5325904;28;19903;-66
2021/12/28 14:30:22;;;;;;;;;;;;;;;;;;5325371;28;19910;-66
2021/12/28 14:32:53;;;;;;;;;;;;;;;;;;5325416;28;20312;-66
2021/12/28 14:35:24;;;;;;;;;;;;;;;;;;5325241;28;19943;-67
2021/12/28 14:37:55;;;;;;;;;;;;;;;;;;5324978;28;20343;-67
2021/12/28 14:40:26;;;;;;;;;;;;;;;;;;5326186;28;20025;-67
2021/12/28 14:42:57;;;;;;;;;;;;;;;;;;5324948;28;19915;-67
2021/12/28 14:45:29;;;;;;;;;;;;;;;;;;5325830;28;19900;-67
2021/12/28 14:48:00;;;;;;;;;;;;;;;;;;5323987;28;20286;-67
2021/12/28 14:50:31;;;;;;;;;;;;;;;;;;5324396;28;19948;-67
2021/12/28 14:53:03;;;;;;;;;;;;;;;;;;5325274;28;19982;-66
2021/12/28 14:55:36;;;;;;;;;;;;;;;;;;5325884;27;20251;-66
2021/12/28 14:58:07;;;;;;;;;;;;;;;;;;5324499;28;19950;-66
2021/12/28 15:00:38;;;;;;;;;;;;;;;;;;5324994;28;19958;-67
2021/12/28 15:03:09;;;;;;;;;;;;;;;;;;5325370;28;20187;-66
2021/12/28 15:05:42;;;;;;;;;;;;;;;;;;5324199;28;20343;-66
2021/12/28 15:08:13;;;;;;;;;;;;;;;;;;5325398;28;19947;-68
2021/12/28 15:10:44;;;;;;;;;;;;;;;;;;5324028;28;19954;-67
2021/12/28 15:13:15;;;;;;;;;;;;;;;;;;5325314;28;19957;-67
2021/12/28 15:15:46;;;;;;;;;;;;;;;;;;5324547;28;19912;-67
2021/12/28 15:18:18;;;;;;;;;;;;;;;;;;5324166;28;19904;-67
2021/12/28 15:20:50;;;;;;;;;;;;;;;;;;5324633;28;20405;-67
2021/12/28 15:23:21;;;;;;;;;;;;;;;;;;5325037;28;19903;-69
2021/12/28 15:25:53;;;;;;;;;;;;;;;;;;5323674;28;19903;-68
2021/12/28 15:28:24;;;;;;;;;;;;;;;;;;5325346;28;20369;-69
2021/12/28 15:30:55;;;;;;;;;;;;;;;;;;5324013;28;19907;-68
2021/12/28 15:33:26;;;;;;;;;;;;;;;;;;5324236;28;19916;-68
2021/12/28 15:36:00;;;;;;;;;;;;;;;;;;5324190;28;19920;-68
2021/12/28 15:38:31;;;;;;;;;;;;;;;;;;5317498;28;19904;-67
2021/12/28 15:41:02;;;;;;;;;;;;;;;;;;5324307;28;19931;-68
2021/12/28 15:43:33;;;;;;;;;;;;;;;;;;5324786;28;19908;-68
2021/12/28 15:46:08;;;;;;;;;;;;;;;;;;5322999;28;20251;-68
2021/12/28 15:48:40;;;;;;;;;;;;;;;;;;5309913;28;19942;-68
2021/12/28 15:51:11;;;;;;;;;;;;;;;;;;5302776;28;19904;-68
2021/12/28 15:53:42;;;;;;;;;;;;;;;;;;5301701;28;19908;-67
2021/12/28 15:56:15;;;;;;;;;;;;;;;;;;5303897;28;19960;-68
2021/12/28 15:58:46;;;;;;;;;;;;;;;;;;5301053;28;19904;-67
2021/12/28 16:01:17;;;;;;;;;;;;;;;;;;5300815;28;19914;-67
2021/12/28 16:03:50;;;;;;;;;;;;;;;;;;5301204;28;19957;-68
2021/12/28 16:06:21;;;;;;;;;;;;;;;;;;5302266;28;19904;-68
2021/12/28 16:08:52;;;;;;;;;;;;;;;;;;5300930;28;20003;-68
2021/12/28 16:11:23;;;;;;;;;;;;;;;;;;5301643;28;19908;-68
2021/12/28 16:13:56;;;;;;;;;;;;;;;;;;5309149;28;19965;-68
2021/12/28 16:16:27;;;;;;;;;;;;;;;;;;5312696;28;19916;-67
2021/12/28 16:18:58;;;;;;;;;;;;;;;;;;5322654;28;19910;-68
2021/12/28 16:21:29;;;;;;;;;;;;;;;;;;5322382;28;19904;-67
2021/12/28 16:24:00;;;;;;;;;;;;;;;;;;5322409;28;19908;-67
2021/12/28 16:26:32;;;;;;;;;;;;;;;;;;5321869;28;19908;-67
2021/12/28 16:29:03;;;;;;;;;;;;;;;;;;5322353;28;19904;-67
2021/12/28 16:31:34;;;;;;;;;;;;;;;;;;5323789;28;19907;-67
2021/12/28 16:34:05;;;;;;;;;;;;;;;;;;5322880;28;19908;-68
2021/12/28 16:36:39;;;;;;;;;;;;;;;;;;5322681;28;19912;-67
2021/12/28 16:39:10;;;;;;;;;;;;;;;;;;5323067;28;19908;-67
2021/12/28 16:41:41;;;;;;;;;;;;;;;;;;5322014;28;20281;-68
2021/12/28 16:44:12;;;;;;;;;;;;;;;;;;5322658;28;19926;-67
2021/12/28 16:46:43;;;;;;;;;;;;;;;;;;5322683;28;19904;-68
2021/12/28 16:49:15;;;;;;;;;;;;;;;;;;5322947;28;20357;-67
2021/12/28 16:51:46;;;;;;;;;;;;;;;;;;5323087;28;19994;-68
2021/12/28 16:54:17;;;;;;;;;;;;;;;;;;5323759;28;19903;-67
2021/12/28 16:56:48;;;;;;;;;;;;;;;;;;5321860;28;19955;-68
2021/12/28 16:59:19;;;;;;;;;;;;;;;;;;5323406;28;20259;-68
2021/12/28 17:01:51;;;;;;;;;;;;;;;;;;5322824;28;19911;-68
2021/12/28 17:04:24;;;;;;;;;;;;;;;;;;5322679;28;20329;-67
2021/12/28 17:06:55;;;;;;;;;;;;;;;;;;5322719;28;19908;-67
2021/12/28 17:09:26;;;;;;;;;;;;;;;;;;5323075;28;20282;-67
2021/12/28 17:11:57;;;;;;;;;;;;;;;;;;5321135;28;20056;-67
2021/12/28 17:14:28;;;;;;;;;;;;;;;;;;5323475;28;19911;-67